Time;durP1;ratioP1;P1;durP2;ratioP2;P2;SDS_P1;SDS_P2;PMS_P1;PMS_P2;Temp;Humidity;BMP_temperature;BMP_pressure;BME280_temperature;BME280_humidity;BME280_pressure;Samples;Min_cycle;Max_cycle;Signal;HPM_P1;HPM_P2
2021/10/23 00:01:08;;;;;;;8.90;6.55;;;12.30;99.90;;;;;;5014422;28;20222;-78
2021/10/23 00:03:33;;;;;;;7.40;5.80;;;12.40;99.90;;;;;;5014377;28;20173;-77
2021/10/23 00:06:00;;;;;;;8.13;6.13;;;12.40;99.90;;;;;;5013094;28;20183;-78
2021/10/23 00:08:25;;;;;;;7.40;6.03;;;12.20;99.90;;;;;;5014103;28;20184;-77
2021/10/23 00:10:51;;;;;;;15.25;6.38;;;12.30;99.90;;;;;;5014436;28;20179;-77
2021/10/23 00:13:17;;;;;;;15.30;6.93;;;12.40;99.90;;;;;;5014181;28;20506;-77
2021/10/23 00:15:42;;;;;;;8.45;6.63;;;12.10;99.90;;;;;;5013996;28;20188;-77
2021/10/23 00:18:08;;;;;;;15.88;6.72;;;11.90;99.90;;;;;;5013971;28;20208;-77
2021/10/23 00:20:34;;;;;;;8.93;6.65;;;12.00;99.90;;;;;;5014025;28;20579;-77
2021/10/23 00:23:00;;;;;;;10.68;6.85;;;12.00;99.90;;;;;;5014130;28;20617;-77
2021/10/23 00:25:26;;;;;;;9.32;6.97;;;11.90;99.90;;;;;;5014105;28;20211;-77
2021/10/23 00:27:55;;;;;;;8.05;6.93;;;11.80;99.90;;;;;;5013987;28;20218;-77
2021/10/23 00:30:22;;;;;;;9.38;7.25;;;11.70;99.90;;;;;;5014232;28;20176;-77
2021/10/23 00:32:48;;;;;;;7.75;7.05;;;11.50;99.90;;;;;;5013763;28;20620;-77
2021/10/23 00:35:14;;;;;;;8.75;7.85;;;11.60;99.90;;;;;;5013930;28;20165;-77
2021/10/23 00:37:40;;;;;;;11.50;7.60;;;11.60;99.90;;;;;;5013799;28;20212;-77
2021/10/23 00:40:06;;;;;;;11.90;8.35;;;11.70;99.90;;;;;;5013972;28;20161;-77
2021/10/23 00:42:34;;;;;;;15.30;8.52;;;11.70;99.90;;;;;;5013797;28;20564;-78
2021/10/23 00:45:00;;;;;;;13.88;8.27;;;11.40;99.90;;;;;;5013400;28;20200;-78
2021/10/23 00:47:25;;;;;;;13.57;7.80;;;11.60;99.90;;;;;;5013316;28;20168;-77
2021/10/23 00:49:52;;;;;;;13.05;7.85;;;11.80;99.90;;;;;;5013462;28;20175;-78
2021/10/23 00:52:20;;;;;;;9.93;7.70;;;11.80;99.90;;;;;;5012328;28;20614;-77
2021/10/23 00:54:46;;;;;;;10.80;8.07;;;11.80;99.90;;;;;;5013630;28;20172;-77
2021/10/23 00:57:11;;;;;;;14.77;8.18;;;11.80;99.90;;;;;;5013274;28;20258;-77
2021/10/23 00:59:37;;;;;;;11.35;8.70;;;11.90;99.90;;;;;;5013315;28;20238;-77
2021/10/23 01:02:04;;;;;;;14.68;8.52;;;11.90;99.90;;;;;;5013560;28;20160;-77
2021/10/23 01:04:30;;;;;;;18.83;9.48;;;12.10;99.90;;;;;;5013244;28;20247;-77
2021/10/23 01:06:55;;;;;;;26.60;10.98;;;12.10;99.90;;;;;;5011963;28;20263;-77
2021/10/23 01:09:21;;;;;;;27.63;11.15;;;12.10;99.90;;;;;;5013576;28;20188;-77
2021/10/23 01:11:47;;;;;;;17.75;10.27;;;11.90;99.90;;;;;;5013426;28;20164;-77
2021/10/23 01:14:18;;;;;;;30.00;11.65;;;12.00;99.90;;;;;;5012973;28;20687;-77
2021/10/23 01:16:45;;;;;;;19.33;10.55;;;12.00;99.90;;;;;;5013044;28;20211;-77
2021/10/23 01:19:12;;;;;;;11.18;8.88;;;11.90;99.90;;;;;;5012942;28;20200;-77
2021/10/23 01:21:38;;;;;;;21.65;9.25;;;12.00;99.90;;;;;;5013083;28;20255;-77
2021/10/23 01:24:06;;;;;;;17.75;9.02;;;11.90;99.90;;;;;;5013133;28;20655;-77
2021/10/23 01:26:33;;;;;;;13.18;8.15;;;11.80;99.90;;;;;;5013140;28;20621;-77
2021/10/23 01:28:59;;;;;;;12.48;9.07;;;11.60;99.90;;;;;;5012719;28;20188;-78
2021/10/23 01:31:27;;;;;;;15.50;8.75;;;11.50;99.90;;;;;;5013042;28;20636;-77
2021/10/23 01:33:52;;;;;;;11.32;7.65;;;11.50;99.90;;;;;;5013244;28;20172;-77
2021/10/23 01:36:19;;;;;;;13.52;8.52;;;11.50;99.90;;;;;;5016534;28;20195;-77
2021/10/23 01:38:45;;;;;;;13.88;8.10;;;11.70;99.90;;;;;;5014708;28;20212;-77
2021/10/23 01:41:12;;;;;;;10.20;9.25;;;11.80;99.90;;;;;;5012815;28;20165;-78
2021/10/23 01:43:38;;;;;;;12.10;7.82;;;11.80;99.90;;;;;;5012760;28;20216;-77
2021/10/23 01:46:04;;;;;;;14.45;8.57;;;11.80;99.90;;;;;;5012320;28;20169;-77
2021/10/23 01:48:32;;;;;;;12.70;8.38;;;11.80;99.90;;;;;;5012263;28;20192;-77
2021/10/23 01:50:58;;;;;;;10.40;8.38;;;11.60;99.90;;;;;;5012655;28;20167;-77
2021/10/23 01:53:24;;;;;;;10.32;8.23;;;11.70;99.90;;;;;;5011532;28;20211;-77
2021/10/23 01:55:52;;;;;;;7.93;7.22;;;11.60;99.90;;;;;;5013272;28;20188;-77
2021/10/23 01:58:18;;;;;;;15.77;8.38;;;11.30;99.90;;;;;;5015859;28;20211;-77
2021/10/23 02:00:43;;;;;;;15.55;7.80;;;11.40;99.90;;;;;;5017422;28;20174;-78
2021/10/23 02:03:09;;;;;;;9.63;8.02;;;11.40;99.90;;;;;;5017230;28;20168;-78
2021/10/23 02:05:34;;;;;;;9.32;8.40;;;11.40;99.90;;;;;;5017824;28;20177;-77
2021/10/23 02:08:00;;;;;;;13.23;8.63;;;11.30;99.90;;;;;;5017110;28;20189;-78
2021/10/23 02:10:26;;;;;;;17.48;9.00;;;11.20;99.90;;;;;;5017097;28;20168;-77
2021/10/23 02:12:51;;;;;;;9.80;8.25;;;11.20;99.90;;;;;;5017174;28;20198;-77
2021/10/23 02:15:17;;;;;;;14.10;8.57;;;11.20;99.90;;;;;;5015364;28;20562;-77
2021/10/23 02:17:43;;;;;;;8.60;7.72;;;11.20;99.90;;;;;;5015484;28;20223;-78
2021/10/23 02:20:10;;;;;;;14.68;8.43;;;11.10;99.90;;;;;;5016543;28;20176;-78
2021/10/23 02:22:37;;;;;;;10.95;8.15;;;11.10;99.90;;;;;;5015482;28;20169;-79
2021/10/23 02:25:04;;;;;;;15.02;9.57;;;11.10;99.90;;;;;;5017159;28;20164;-78
2021/10/23 02:27:30;;;;;;;24.58;10.20;;;11.10;99.90;;;;;;5016680;28;20503;-78
2021/10/23 02:29:56;;;;;;;20.67;9.98;;;11.20;99.90;;;;;;5016412;28;20175;-78
2021/10/23 02:32:22;;;;;;;12.07;8.98;;;11.10;99.90;;;;;;5016464;28;20247;-78
2021/10/23 02:34:47;;;;;;;12.98;9.13;;;11.10;99.90;;;;;;5016346;28;20168;-78
2021/10/23 02:37:14;;;;;;;14.98;9.02;;;11.30;99.90;;;;;;5017091;28;20196;-78
2021/10/23 02:39:39;;;;;;;13.55;8.73;;;11.20;99.90;;;;;;5014729;28;20208;-77
2021/10/23 02:42:05;;;;;;;15.57;8.45;;;11.10;99.90;;;;;;5015015;28;20534;-77
2021/10/23 02:44:33;;;;;;;12.27;9.00;;;10.70;99.90;;;;;;5017802;28;20176;-80
2021/10/23 02:46:59;;;;;;;9.70;8.10;;;10.60;99.90;;;;;;5018330;28;20667;-77
2021/10/23 02:49:28;;;;;;;15.35;8.50;;;10.60;99.90;;;;;;5016982;28;20192;-78
2021/10/23 02:51:57;;;;;;;15.68;8.95;;;10.50;99.90;;;;;;5016359;28;20659;-77
2021/10/23 02:54:23;;;;;;;9.20;8.38;;;10.40;99.90;;;;;;5016055;28;20172;-77
2021/10/23 02:56:52;;;;;;;12.25;8.57;;;10.50;99.90;;;;;;5014271;28;20188;-77
2021/10/23 02:59:17;;;;;;;9.90;8.90;;;10.40;99.90;;;;;;5015680;28;20195;-78
2021/10/23 03:01:43;;;;;;;9.38;8.48;;;10.50;99.90;;;;;;5016025;28;20537;-75
2021/10/23 03:04:09;;;;;;;10.35;9.30;;;10.40;99.90;;;;;;5015877;28;20179;-77
2021/10/23 03:06:34;;;;;;;15.00;8.70;;;10.40;99.90;;;;;;5016001;28;20168;-77
2021/10/23 03:09:00;;;;;;;10.95;8.88;;;10.50;99.90;;;;;;5014739;28;20196;-78
2021/10/23 03:11:26;;;;;;;10.00;8.85;;;10.60;99.90;;;;;;5014671;28;20179;-78
2021/10/23 03:13:51;;;;;;;12.98;9.82;;;10.70;99.90;;;;;;5015769;28;20161;-77
2021/10/23 03:16:17;;;;;;;11.82;9.05;;;10.70;99.90;;;;;;5015612;28;20279;-77
2021/10/23 03:18:43;;;;;;;12.38;9.45;;;10.80;99.90;;;;;;5015237;28;20291;-77
2021/10/23 03:21:08;;;;;;;17.15;10.00;;;10.90;99.90;;;;;;5015580;28;20173;-77
2021/10/23 03:23:34;;;;;;;16.23;9.80;;;10.70;99.90;;;;;;5015337;28;20172;-77
2021/10/23 03:26:00;;;;;;;13.82;10.73;;;10.30;99.90;;;;;;5015396;28;20655;-76
2021/10/23 03:28:26;;;;;;;17.75;10.98;;;10.40;99.90;;;;;;5014024;28;20287;-77
2021/10/23 03:30:51;;;;;;;12.25;9.65;;;10.50;99.90;;;;;;5015586;28;20247;-78
2021/10/23 03:33:17;;;;;;;13.15;9.50;;;10.70;99.90;;;;;;5015249;28;20164;-76
2021/10/23 03:35:43;;;;;;;16.83;9.70;;;10.70;99.90;;;;;;5015324;28;20215;-78
2021/10/23 03:38:09;;;;;;;11.90;10.13;;;10.80;99.90;;;;;;5015061;28;20254;-78
2021/10/23 03:40:35;;;;;;;15.50;9.82;;;10.80;99.90;;;;;;5015090;28;20175;-77
2021/10/23 03:43:00;;;;;;;12.45;9.40;;;10.70;99.90;;;;;;5014889;28;20617;-77
2021/10/23 03:45:26;;;;;;;18.58;8.70;;;10.50;99.90;;;;;;5014756;28;20165;-78
2021/10/23 03:47:52;;;;;;;16.75;9.60;;;10.40;99.90;;;;;;5014706;28;20272;-77
2021/10/23 03:50:18;;;;;;;13.20;8.95;;;10.40;99.90;;;;;;5014782;28;20177;-78
2021/10/23 03:52:43;;;;;;;15.00;9.23;;;10.40;99.90;;;;;;5014906;28;20624;-77
2021/10/23 03:55:10;;;;;;;14.90;9.32;;;10.30;99.90;;;;;;5014860;28;20644;-77
2021/10/23 03:57:37;;;;;;;9.75;8.75;;;10.30;99.90;;;;;;5014795;28;20279;-77
2021/10/23 04:00:05;;;;;;;12.95;9.02;;;10.20;99.90;;;;;;5013357;28;20621;-77
2021/10/23 04:02:31;;;;;;;13.93;8.85;;;10.10;99.90;;;;;;5014808;28;20165;-77
2021/10/23 04:04:57;;;;;;;9.90;8.35;;;9.90;99.90;;;;;;5014563;28;20196;-77
2021/10/23 04:07:23;;;;;;;16.58;9.35;;;10.00;99.90;;;;;;5013129;28;20207;-77
2021/10/23 04:09:48;;;;;;;19.75;10.63;;;10.20;99.90;;;;;;5014408;28;20215;-79
2021/10/23 04:12:14;;;;;;;10.75;9.27;;;10.10;99.90;;;;;;5014662;28;20176;-77
2021/10/23 04:14:40;;;;;;;15.25;10.27;;;10.10;99.90;;;;;;5012983;28;20184;-76
2021/10/23 04:17:05;;;;;;;10.75;9.00;;;9.90;99.90;;;;;;5014356;28;20180;-76
2021/10/23 04:19:31;;;;;;;13.13;10.32;;;9.90;99.90;;;;;;5012373;28;20287;-76
2021/10/23 04:21:57;;;;;;;13.50;8.52;;;9.70;99.90;;;;;;5014730;28;20251;-77
2021/10/23 04:24:23;;;;;;;13.85;9.85;;;9.70;99.90;;;;;;5013162;28;20172;-78
2021/10/23 04:26:50;;;;;;;16.65;10.55;;;9.90;99.90;;;;;;5014233;28;20169;-77
2021/10/23 04:29:16;;;;;;;12.38;9.30;;;9.60;99.90;;;;;;5013996;28;20258;-77
2021/10/23 04:31:41;;;;;;;13.25;9.32;;;9.50;99.90;;;;;;5014321;28;20176;-77
2021/10/23 04:34:07;;;;;;;11.43;9.07;;;9.50;99.90;;;;;;5012641;28;20165;-75
2021/10/23 04:36:33;;;;;;;10.27;9.10;;;9.60;99.90;;;;;;5014101;28;20181;-78
2021/10/23 04:38:59;;;;;;;11.30;8.65;;;9.70;99.90;;;;;;5013534;28;20212;-76
2021/10/23 04:41:24;;;;;;;15.45;9.98;;;9.50;99.90;;;;;;5014133;28;20156;-76
2021/10/23 04:43:50;;;;;;;18.58;8.93;;;9.30;99.90;;;;;;5012758;28;20180;-77
2021/10/23 04:46:16;;;;;;;10.52;9.50;;;9.30;99.90;;;;;;5013801;28;20169;-76
2021/10/23 04:48:42;;;;;;;12.95;8.98;;;9.50;99.90;;;;;;5012223;28;20250;-77
2021/10/23 04:51:08;;;;;;;10.02;8.68;;;9.50;99.90;;;;;;5013688;28;20160;-76
2021/10/23 04:53:33;;;;;;;13.98;9.07;;;9.60;99.90;;;;;;5013760;28;20679;-77
2021/10/23 04:55:59;;;;;;;10.40;9.45;;;9.60;99.90;;;;;;5013598;28;20175;-80
2021/10/23 04:58:25;;;;;;;12.80;10.07;;;9.60;99.90;;;;;;5013932;28;20215;-77
2021/10/23 05:00:50;;;;;;;16.38;9.20;;;9.60;99.90;;;;;;5014540;28;20169;-77
2021/10/23 05:03:16;;;;;;;11.95;8.45;;;9.60;99.90;;;;;;5013415;28;20176;-77
2021/10/23 05:05:42;;;;;;;14.43;10.35;;;9.60;99.90;;;;;;5013829;28;20163;-77
2021/10/23 05:08:07;;;;;;;12.55;8.85;;;9.30;99.90;;;;;;5013419;28;20189;-77
2021/10/23 05:10:33;;;;;;;12.68;9.10;;;9.20;99.90;;;;;;5013430;28;20179;-76
2021/10/23 05:12:58;;;;;;;12.23;9.27;;;9.00;99.90;;;;;;5013517;28;20165;-76
2021/10/23 05:15:24;;;;;;;11.45;8.50;;;8.90;99.90;;;;;;5013729;28;20195;-76
2021/10/23 05:17:50;;;;;;;12.60;7.97;;;9.00;99.90;;;;;;5013270;28;20274;-76
2021/10/23 05:20:16;;;;;;;10.57;7.80;;;9.10;99.90;;;;;;5013356;28;20625;-77
2021/10/23 05:22:42;;;;;;;12.77;9.05;;;9.10;99.90;;;;;;5013060;28;20608;-76
2021/10/23 05:25:08;;;;;;;12.95;8.57;;;9.10;99.90;;;;;;5013123;28;20247;-77
2021/10/23 05:27:33;;;;;;;13.65;8.48;;;9.20;99.90;;;;;;5012947;28;20259;-76
2021/10/23 05:29:59;;;;;;;14.43;8.50;;;9.30;99.90;;;;;;5011816;28;20251;-76
2021/10/23 05:32:25;;;;;;;14.55;8.48;;;9.10;99.90;;;;;;5011120;28;20203;-78
2021/10/23 05:34:51;;;;;;;10.52;8.23;;;8.90;99.90;;;;;;5012969;28;20267;-77
2021/10/23 05:37:16;;;;;;;13.98;8.75;;;8.90;99.90;;;;;;5013329;28;20250;-76
2021/10/23 05:39:42;;;;;;;10.10;8.52;;;8.90;99.90;;;;;;5013831;28;20243;-77
2021/10/23 05:42:07;;;;;;;13.43;8.63;;;9.00;99.90;;;;;;5013527;28;20169;-77
2021/10/23 05:44:33;;;;;;;10.93;9.18;;;9.00;99.90;;;;;;5018510;28;20579;-76
2021/10/23 05:46:59;;;;;;;10.80;7.63;;;8.90;99.90;;;;;;5016517;28;20172;-76
2021/10/23 05:49:25;;;;;;;15.98;9.48;;;8.70;99.90;;;;;;5015659;28;20195;-76
2021/10/23 05:51:51;;;;;;;14.65;9.00;;;8.70;99.90;;;;;;5015678;28;20394;-76
2021/10/23 05:54:17;;;;;;;10.45;9.20;;;8.80;99.90;;;;;;5012864;28;20252;-77
2021/10/23 05:56:42;;;;;;;12.43;9.00;;;8.90;99.90;;;;;;5012665;28;20303;-77
2021/10/23 05:59:12;;;;;;;9.40;8.50;;;9.10;99.90;;;;;;5012394;28;20674;-77
2021/10/23 06:01:39;;;;;;;9.23;8.32;;;8.70;99.90;;;;;;5012490;28;20169;-77
2021/10/23 06:04:05;;;;;;;10.38;9.02;;;8.80;99.90;;;;;;5012575;28;20637;-77
2021/10/23 06:06:31;;;;;;;15.15;10.65;;;8.70;99.90;;;;;;5012238;28;20161;-77
2021/10/23 06:08:57;;;;;;;13.55;8.35;;;8.90;99.90;;;;;;5012443;28;20200;-77
2021/10/23 06:11:23;;;;;;;16.17;9.70;;;8.80;99.90;;;;;;5012603;28;20251;-77
2021/10/23 06:13:50;;;;;;;18.30;10.18;;;9.00;99.90;;;;;;5011175;28;20176;-77
2021/10/23 06:16:16;;;;;;;10.88;9.02;;;9.10;99.90;;;;;;5012286;28;20184;-77
2021/10/23 06:18:42;;;;;;;13.13;9.45;;;9.10;99.90;;;;;;5012526;28;20262;-77
2021/10/23 06:21:08;;;;;;;12.35;10.77;;;9.10;99.90;;;;;;5011988;28;20180;-77
2021/10/23 06:23:34;;;;;;;12.32;10.00;;;9.10;99.90;;;;;;5011354;28;20215;-76
2021/10/23 06:26:01;;;;;;;13.48;9.68;;;9.40;99.90;;;;;;5012539;28;20185;-77
2021/10/23 06:28:27;;;;;;;15.43;9.85;;;9.50;99.90;;;;;;5012310;28;20254;-77
2021/10/23 06:30:53;;;;;;;10.70;9.40;;;9.60;99.90;;;;;;5012347;28;20192;-77
2021/10/23 06:33:19;;;;;;;12.73;8.68;;;9.40;99.90;;;;;;5012621;28;20196;-86
2021/10/23 06:35:45;;;;;;;12.45;9.55;;;9.30;99.90;;;;;;5013765;28;20180;-82
2021/10/23 06:38:11;;;;;;;10.88;8.82;;;9.50;99.90;;;;;;5013404;28;20739;-82
2021/10/23 06:40:37;;;;;;;17.10;9.90;;;9.70;99.90;;;;;;5013810;28;20165;-84
2021/10/23 06:43:02;;;;;;;10.40;9.32;;;9.70;99.90;;;;;;5014345;28;20196;-90
2021/10/23 06:45:30;;;;;;;9.77;8.77;;;9.90;99.90;;;;;;5017665;28;20704;-92
2021/10/23 06:47:56;;;;;;;15.20;9.98;;;10.10;99.90;;;;;;5017518;28;20653;-90
2021/10/23 06:50:22;;;;;;;13.45;9.93;;;10.20;99.90;;;;;;5016349;28;20164;-93
2021/10/23 06:52:48;;;;;;;12.73;9.77;;;10.30;99.90;;;;;;5017590;28;20169;-78
2021/10/23 06:55:14;;;;;;;14.05;9.55;;;10.30;99.90;;;;;;5017302;28;20247;-92
2021/10/23 06:57:39;;;;;;;10.73;9.65;;;10.30;99.90;;;;;;5017340;28;20200;-89
2021/10/23 07:00:06;;;;;;;14.50;10.38;;;10.30;99.90;;;;;;5017352;28;20157;-80
2021/10/23 07:02:39;;;;;;;15.65;9.98;;;10.40;99.90;;;;;;5016149;28;20779;-91
2021/10/23 07:05:10;;;;;;;10.50;9.30;;;10.50;99.90;;;;;;5016310;28;20175;-90
2021/10/23 07:07:35;;;;;;;9.82;8.80;;;10.50;99.90;;;;;;5016934;28;20169;-77
2021/10/23 07:10:02;;;;;;;10.50;9.25;;;10.50;99.90;;;;;;5015044;28;20510;-77
2021/10/23 07:12:28;;;;;;;18.40;10.30;;;10.60;99.90;;;;;;5015559;28;20188;-80
2021/10/23 07:14:53;;;;;;;17.98;11.30;;;10.70;99.90;;;;;;5015191;28;20570;-77
2021/10/23 07:17:19;;;;;;;18.05;11.10;;;10.90;99.90;;;;;;5013500;28;20687;-78
2021/10/23 07:19:45;;;;;;;15.15;9.32;;;11.10;99.90;;;;;;5015325;28;20271;-79
2021/10/23 07:22:10;;;;;;;12.18;9.25;;;11.10;99.90;;;;;;5015240;28;20207;-79
2021/10/23 07:24:36;;;;;;;12.88;9.38;;;11.10;99.90;;;;;;5014977;28;20176;-78
2021/10/23 07:27:01;;;;;;;15.95;10.10;;;11.30;99.90;;;;;;5014827;28;20169;-78
2021/10/23 07:29:27;;;;;;;12.75;9.90;;;11.50;99.90;;;;;;5014567;28;20676;-78
2021/10/23 07:31:53;;;;;;;14.98;9.73;;;11.40;99.90;;;;;;5015179;28;20694;-78
2021/10/23 07:34:19;;;;;;;22.77;12.32;;;11.50;99.90;;;;;;5014397;28;20169;-80
2021/10/23 07:36:44;;;;;;;13.35;9.52;;;11.70;99.90;;;;;;5014253;28;20168;-80
2021/10/23 07:39:10;;;;;;;9.68;8.77;;;11.70;99.90;;;;;;5013677;28;20212;-79
2021/10/23 07:41:38;;;;;;;16.00;11.18;;;11.80;99.90;;;;;;5014644;28;20173;-78
2021/10/23 07:44:04;;;;;;;22.00;10.00;;;11.80;99.90;;;;;;5014691;28;20177;-79
2021/10/23 07:46:30;;;;;;;15.05;10.13;;;11.70;99.90;;;;;;5014678;28;20188;-79
2021/10/23 07:48:56;;;;;;;18.45;9.80;;;11.90;99.90;;;;;;5014268;28;20199;-78
2021/10/23 07:51:22;;;;;;;12.02;8.38;;;11.80;99.90;;;;;;5014310;28;20172;-79
2021/10/23 07:53:50;;;;;;;15.65;8.85;;;11.90;99.90;;;;;;5014220;28;20173;-78
2021/10/23 07:56:16;;;;;;;12.82;9.73;;;12.10;99.90;;;;;;5013761;28;20157;-80
2021/10/23 07:58:41;;;;;;;17.55;8.52;;;12.00;99.90;;;;;;5014299;28;20223;-79
2021/10/23 08:01:07;;;;;;;13.80;8.68;;;12.20;99.90;;;;;;5013979;28;20169;-79
2021/10/23 08:03:33;;;;;;;11.13;7.95;;;12.20;99.90;;;;;;5014250;28;20184;-79
2021/10/23 08:05:58;;;;;;;10.48;8.00;;;11.90;99.90;;;;;;5013964;28;20179;-78
2021/10/23 08:08:24;;;;;;;12.45;7.57;;;11.90;99.90;;;;;;5015018;28;20640;-79
2021/10/23 08:10:50;;;;;;;16.60;7.47;;;11.90;99.90;;;;;;5014936;28;20172;-79
2021/10/23 08:13:15;;;;;;;14.77;8.60;;;12.00;99.90;;;;;;5015335;28;20172;-80
2021/10/23 08:15:41;;;;;;;13.98;8.88;;;12.10;99.90;;;;;;5014246;28;20194;-79
2021/10/23 08:18:07;;;;;;;13.35;7.80;;;12.30;99.90;;;;;;5017832;28;20212;-78
2021/10/23 08:20:34;;;;;;;16.83;7.93;;;12.40;99.90;;;;;;5014999;28;20161;-79
2021/10/23 08:23:00;;;;;;;16.00;8.45;;;12.30;99.90;;;;;;5014005;28;20165;-76
2021/10/23 08:25:26;;;;;;;10.48;7.60;;;12.30;99.90;;;;;;5013944;28;20512;-75
2021/10/23 08:27:51;;;;;;;17.20;7.65;;;12.30;99.90;;;;;;5014115;28;20196;-77
2021/10/23 08:30:18;;;;;;;14.18;9.90;;;12.50;99.90;;;;;;5013505;28;20196;-76
2021/10/23 08:32:46;;;;;;;16.30;8.35;;;12.60;99.90;;;;;;5014301;28;20199;-84
2021/10/23 08:35:14;;;;;;;15.13;8.88;;;12.80;99.90;;;;;;5013008;28;20242;-81
2021/10/23 08:37:41;;;;;;;9.95;7.57;;;13.00;99.90;;;;;;5014110;28;20204;-76
2021/10/23 08:40:07;;;;;;;14.27;7.55;;;12.90;99.90;;;;;;5012569;28;20173;-76
2021/10/23 08:42:33;;;;;;;62.90;26.30;;;12.90;99.90;;;;;;5013023;28;20168;-77
2021/10/23 08:45:06;;;;;;;30.40;13.80;;;12.60;99.90;;;;;;5013438;28;20674;-77
2021/10/23 08:47:36;;;;;;;14.90;9.95;;;12.50;99.90;;;;;;5013442;28;20168;-76
2021/10/23 08:50:04;;;;;;;18.92;7.85;;;12.60;99.90;;;;;;5012102;28;20153;-77
2021/10/23 08:52:30;;;;;;;8.45;6.75;;;12.60;99.90;;;;;;5012379;28;20185;-76
2021/10/23 08:54:56;;;;;;;15.63;7.85;;;12.60;99.90;;;;;;5013434;28;20648;-77
2021/10/23 08:57:26;;;;;;;7.93;6.50;;;12.90;99.90;;;;;;5013262;28;20172;-77
2021/10/23 08:59:52;;;;;;;10.10;7.63;;;12.90;99.90;;;;;;5012990;28;20165;-77
2021/10/23 09:02:20;;;;;;;10.25;7.00;;;13.10;99.90;;;;;;5012777;28;20172;-77
2021/10/23 09:04:47;;;;;;;10.40;6.50;;;13.00;99.90;;;;;;5012690;28;20180;-77
2021/10/23 09:07:14;;;;;;;16.70;7.25;;;12.80;99.90;;;;;;5013079;28;20172;-77
2021/10/23 09:09:59;;;;;;;8.93;6.70;;;12.90;99.90;;;;;;5011522;28;20275;-77
2021/10/23 09:12:34;;;;;;;12.65;7.05;;;13.10;99.90;;;;;;5013421;28;20175;-88
2021/10/23 09:15:03;;;;;;;11.55;7.38;;;13.30;99.90;;;;;;5014617;28;20203;-89
2021/10/23 09:17:29;;;;;;;13.80;6.65;;;13.40;99.90;;;;;;5013619;28;20542;-76
2021/10/23 09:19:56;;;;;;;11.43;7.22;;;13.60;99.90;;;;;;5012767;28;20165;-77
2021/10/23 09:22:28;;;;;;;11.80;7.57;;;13.60;99.90;;;;;;5013423;28;20650;-82
2021/10/23 09:25:27;;;;;;;8.32;6.40;;;13.50;99.90;;;;;;5014330;28;20180;-86
2021/10/23 09:28:01;;;;;;;36.67;9.52;;;13.50;99.90;;;;;;5014884;28;20655;-84
2021/10/23 09:30:35;;;;;;;19.67;7.68;;;13.40;99.90;;;;;;5015996;28;20264;-77
2021/10/23 09:33:09;;;;;;;9.45;6.68;;;13.50;99.90;;;;;;5012300;28;20242;-75
2021/10/23 09:35:37;;;;;;;14.05;5.63;;;13.50;99.90;;;;;;5012885;28;20167;-75
2021/10/23 09:38:03;;;;;;;10.93;6.40;;;13.70;99.90;;;;;;5013198;28;20563;-76
2021/10/23 09:40:30;;;;;;;23.30;7.15;;;13.60;99.90;;;;;;5012464;28;20177;-76
2021/10/23 09:43:14;;;;;;;10.93;6.63;;;13.70;99.90;;;;;;5014251;28;20194;-75
2021/10/23 09:46:04;;;;;;;16.00;6.57;;;13.70;99.90;;;;;;5021094;28;20180;-78
2021/10/23 09:48:37;;;;;;;12.02;6.82;;;13.80;99.90;;;;;;5019503;28;20196;-77
2021/10/23 09:51:29;;;;;;;8.27;5.60;;;13.70;99.90;;;;;;5045067;28;20165;-77
2021/10/23 09:53:58;;;;;;;10.25;6.30;;;13.60;99.90;;;;;;5009547;28;20176;-79
2021/10/23 09:56:25;;;;;;;14.60;6.55;;;13.80;99.90;;;;;;5012370;28;20254;-78
2021/10/23 09:58:59;;;;;;;19.20;7.05;;;13.90;99.90;;;;;;5044101;28;20231;-78
2021/10/23 10:01:29;;;;;;;7.85;5.72;;;13.70;99.90;;;;;;5012790;28;20161;-77
2021/10/23 10:04:05;;;;;;;11.02;6.90;;;13.40;99.90;;;;;;5012657;28;20617;-78
2021/10/23 10:06:32;;;;;;;7.65;5.80;;;13.50;99.90;;;;;;5012696;28;20247;-88
2021/10/23 10:08:59;;;;;;;7.72;5.97;;;13.50;99.90;;;;;;5013549;28;20707;-79
2021/10/23 10:11:25;;;;;;;7.80;6.47;;;13.90;99.90;;;;;;5012479;28;20263;-79
2021/10/23 10:13:51;;;;;;;8.60;5.97;;;13.90;99.90;;;;;;5013078;28;20201;-88
2021/10/23 10:16:17;;;;;;;12.63;7.65;;;13.90;99.90;;;;;;5013278;28;20188;-83
2021/10/23 10:18:45;;;;;;;11.65;6.18;;;14.10;99.90;;;;;;5015298;28;20215;-78
2021/10/23 10:21:17;;;;;;;14.35;6.55;;;14.00;99.90;;;;;;5015926;28;20704;-85
2021/10/23 10:23:45;;;;;;;14.73;6.43;;;14.00;99.90;;;;;;5016823;28;20173;-82
2021/10/23 10:26:34;;;;;;;12.48;6.10;;;13.80;99.90;;;;;;5016705;28;20165;-79
2021/10/23 10:29:06;;;;;;;12.15;8.13;;;13.80;99.90;;;;;;5016041;28;20243;-79
2021/10/23 10:32:07;;;;;;;13.00;7.50;;;13.80;99.90;;;;;;5016713;28;20525;-79
2021/10/23 10:37:29;;;;;;;11.95;6.93;;;13.60;99.90;;;;;;5016887;28;20185;-80
2021/10/23 10:40:16;;;;;;;18.05;9.70;;;13.80;99.90;;;;;;5016171;28;20176;-81
2021/10/23 10:43:01;;;;;;;10.63;7.53;;;13.80;99.90;;;;;;5015142;28;20640;-79
2021/10/23 10:45:43;;;;;;;13.23;7.45;;;13.90;99.90;;;;;;5049492;28;20559;-78
2021/10/23 10:48:14;;;;;;;15.30;8.32;;;13.70;99.90;;;;;;5017800;28;20580;-83
2021/10/23 10:50:52;;;;;;;16.27;7.63;;;13.70;99.90;;;;;;5016040;28;20646;-78
2021/10/23 10:53:24;;;;;;;10.68;7.68;;;13.70;99.90;;;;;;5014788;28;20219;-78
2021/10/23 10:55:52;;;;;;;8.27;7.03;;;13.60;99.90;;;;;;5016865;28;20227;-79
2021/10/23 10:58:18;;;;;;;11.90;7.35;;;13.70;99.90;;;;;;5015376;28;20247;-80
2021/10/23 11:00:52;;;;;;;15.05;7.60;;;13.70;99.90;;;;;;5015894;28;20228;-78
2021/10/23 11:03:51;;;;;;;11.93;7.40;;;13.80;99.90;;;;;;5015941;28;20183;-78
2021/10/23 11:06:38;;;;;;;9.40;7.25;;;13.90;99.90;;;;;;5015744;28;20164;-79
2021/10/23 11:09:15;;;;;;;17.77;6.80;;;14.00;99.90;;;;;;5015863;28;20656;-81
2021/10/23 11:11:47;;;;;;;16.55;8.07;;;14.10;99.90;;;;;;5015697;28;20175;-78
2021/10/23 11:14:21;;;;;;;9.90;6.88;;;14.00;99.90;;;;;;5015801;28;20165;-79
2021/10/23 11:17:00;;;;;;;9.10;6.25;;;13.90;99.90;;;;;;5016552;28;20186;-86
2021/10/23 11:19:29;;;;;;;8.60;6.15;;;13.90;99.90;;;;;;5015942;28;20741;-79
2021/10/23 11:21:56;;;;;;;7.18;6.45;;;14.00;99.90;;;;;;5015822;28;20180;-80
2021/10/23 11:24:22;;;;;;;8.52;6.30;;;14.10;99.90;;;;;;5015520;28;20173;-78
2021/10/23 11:26:52;;;;;;;10.25;5.72;;;14.10;99.90;;;;;;5015417;28;20173;-79
2021/10/23 11:29:20;;;;;;;9.25;5.13;;;14.20;99.90;;;;;;5014006;28;20243;-78
2021/10/23 11:31:46;;;;;;;11.90;5.65;;;14.20;99.90;;;;;;5015678;28;20529;-80
2021/10/23 11:36:37;;;;;;;6.15;5.55;;;14.30;99.90;;;;;;5015983;28;20169;-93
2021/10/23 11:39:04;;;;;;;14.63;5.55;;;14.30;99.90;;;;;;5019333;28;20212;-78
2021/10/23 11:41:31;;;;;;;8.00;5.43;;;14.40;99.90;;;;;;5030850;28;20168;-81
2021/10/23 11:44:09;;;;;;;9.43;6.00;;;14.40;99.90;;;;;;5036373;28;20192;-81
2021/10/23 11:46:38;;;;;;;13.25;4.68;;;14.40;99.90;;;;;;5030590;28;20236;-81
2021/10/23 11:49:06;;;;;;;6.03;5.07;;;14.60;99.90;;;;;;5036869;28;20203;-78
2021/10/23 11:51:32;;;;;;;6.78;4.82;;;14.70;99.90;;;;;;5021972;28;20204;-90
2021/10/23 11:54:05;;;;;;;9.18;4.95;;;14.80;99.90;;;;;;5016184;28;20165;-78
2021/10/23 11:56:31;;;;;;;8.32;5.15;;;14.80;99.90;;;;;;5015780;28;20168;-78
2021/10/23 11:58:59;;;;;;;4.63;4.22;;;14.90;99.90;;;;;;5015356;28;20282;-82
2021/10/23 12:01:27;;;;;;;9.38;5.82;;;15.00;99.90;;;;;;5017079;28;20625;-81
2021/10/23 12:04:02;;;;;;;5.60;4.75;;;15.00;99.90;;;;;;5014293;28;20173;-79
2021/10/23 12:06:36;;;;;;;5.82;4.70;;;15.00;99.90;;;;;;5016091;28;20717;-80
2021/10/23 12:09:23;;;;;;;10.27;6.00;;;15.00;99.90;;;;;;5015624;28;20188;-84
2021/10/23 12:12:13;;;;;;;9.85;4.97;;;15.00;99.90;;;;;;5047740;28;20529;-83
2021/10/23 12:14:39;;;;;;;8.23;3.70;;;14.90;99.90;;;;;;5014332;28;20173;-83
2021/10/23 12:17:05;;;;;;;4.22;3.67;;;15.00;99.90;;;;;;5046029;28;20184;-79
2021/10/23 12:19:42;;;;;;;6.82;3.55;;;14.90;99.90;;;;;;5013653;28;20215;-79
2021/10/23 12:22:10;;;;;;;8.75;3.70;;;14.80;99.90;;;;;;5014524;28;20179;-78
2021/10/23 12:24:41;;;;;;;7.22;3.83;;;14.90;99.90;;;;;;5013944;28;20164;-80
2021/10/23 12:27:23;;;;;;;26.15;4.07;;;15.10;99.90;;;;;;5045823;28;20173;-79
2021/10/23 12:29:52;;;;;;;16.77;3.53;;;15.10;99.90;;;;;;5014020;28;20164;-78
2021/10/23 12:32:21;;;;;;;6.32;3.40;;;15.30;99.90;;;;;;5014412;28;20625;-79
2021/10/23 12:34:50;;;;;;;9.52;3.33;;;15.30;99.90;;;;;;5013638;28;20211;-80
2021/10/23 12:37:28;;;;;;;3.80;3.42;;;15.50;99.90;;;;;;5014357;28;20227;-80
2021/10/23 12:40:14;;;;;;;7.55;3.53;;;15.60;99.90;;;;;;5014319;28;20653;-82
2021/10/23 12:42:50;;;;;;;4.45;2.95;;;15.80;99.90;;;;;;5013750;28;20615;-81
2021/10/23 12:45:22;;;;;;;11.15;3.10;;;15.50;99.90;;;;;;5014171;28;20172;-79
2021/10/23 12:47:48;;;;;;;11.60;1.83;;;15.50;99.90;;;;;;5013235;28;20235;-78
2021/10/23 12:50:14;;;;;;;6.82;1.88;;;15.40;99.90;;;;;;5007806;28;20172;-78